createdAt,value
2019-05-25T00:00:11.407Z,61.35
2019-05-25T00:01:11.453Z,60.68
2019-05-25T00:02:11.492Z,59.91
2019-05-25T00:03:11.537Z,58.10
2019-05-25T00:04:11.590Z,58.19
2019-05-25T00:05:11.630Z,58.93
2019-05-25T00:06:11.666Z,58.19
2019-05-25T00:07:11.721Z,58.48
2019-05-25T00:08:11.753Z,57.31
2019-05-25T00:09:11.793Z,56.25
2019-05-25T00:10:11.835Z,55.96
2019-05-25T00:11:11.928Z,56.06
2019-05-25T00:12:11.922Z,55.40
2019-05-25T00:13:11.967Z,55.11
2019-05-25T00:14:12.012Z,55.30
2019-05-25T00:15:12.051Z,55.49
2019-05-25T00:16:12.095Z,55.01
2019-05-25T00:17:12.135Z,54.15
2019-05-25T00:18:12.327Z,53.67
2019-05-25T00:19:12.220Z,54.25
2019-05-25T00:20:12.263Z,54.15
2019-05-25T00:21:14.182Z,54.25
2019-05-25T00:22:12.346Z,53.65
2019-05-25T00:23:12.387Z,53.84
2019-05-25T00:24:12.960Z,53.65
2019-05-25T00:25:12.472Z,53.17
2019-05-25T00:26:12.515Z,53.36
2019-05-25T00:27:12.557Z,53.36
2019-05-25T00:28:12.651Z,52.69
2019-05-25T00:29:12.642Z,52.31
2019-05-25T00:30:12.685Z,52.22
2019-05-25T00:31:12.768Z,51.64
2019-05-25T00:32:12.769Z,51.74
2019-05-25T00:33:12.811Z,52.03
2019-05-25T00:34:12.855Z,51.83
2019-05-25T00:35:12.897Z,51.54
2019-05-25T00:36:12.939Z,51.07
2019-05-25T00:37:12.989Z,50.31
2019-05-25T00:38:13.025Z,50.21
2019-05-25T00:39:13.063Z,50.49
2019-05-25T00:40:13.106Z,50.67
2019-05-25T00:41:13.153Z,49.54
2019-05-25T00:42:13.198Z,49.90
2019-05-25T00:43:13.234Z,49.23
2019-05-25T00:44:13.427Z,49.04
2019-05-25T00:45:13.319Z,48.94
2019-05-25T00:46:13.372Z,48.37
2019-05-25T00:47:13.401Z,48.37
2019-05-25T00:48:13.446Z,48.28
2019-05-25T00:49:13.486Z,47.89
2019-05-25T00:50:13.527Z,48.08
2019-05-25T00:51:13.679Z,47.80
2019-05-25T00:52:13.611Z,47.42
2019-05-25T00:53:13.655Z,47.61
2019-05-25T00:54:27.007Z,48.08
2019-05-25T00:55:13.745Z,47.71
2019-05-25T00:56:13.780Z,47.42
2019-05-25T00:57:13.821Z,47.32
2019-05-25T00:58:13.862Z,47.42
2019-05-25T00:59:13.912Z,47.61
2019-05-25T01:00:13.947Z,48.37
2019-05-25T01:01:13.997Z,48.75
2019-05-25T01:02:14.030Z,48.57
2019-05-25T01:03:14.079Z,49.04
2019-05-25T01:04:14.112Z,49.42
2019-05-25T01:05:14.156Z,48.75
2019-05-25T01:06:14.196Z,48.37
2019-05-25T01:07:14.237Z,48.28
2019-05-25T01:08:14.297Z,48.66
2019-05-25T01:09:14.322Z,48.94
2019-05-25T01:10:14.364Z,48.18
2019-05-25T01:11:14.408Z,47.61
2019-05-25T01:12:14.447Z,47.20
2019-05-25T01:13:14.490Z,47.03
2019-05-25T01:14:14.532Z,46.56
2019-05-25T01:15:14.572Z,46.27
2019-05-25T01:16:14.616Z,46.82
2019-05-25T01:17:14.657Z,46.84
2019-05-25T01:18:14.705Z,47.11
2019-05-25T01:19:14.739Z,46.54
2019-05-25T01:20:14.780Z,46.18
2019-05-25T01:21:14.824Z,45.97
2019-05-25T01:22:14.863Z,45.58
2019-05-25T01:23:14.912Z,45.87
2019-05-25T01:24:14.946Z,45.87
2019-05-25T01:25:14.988Z,45.97
2019-05-25T01:26:15.028Z,45.87
2019-05-25T01:27:15.071Z,45.70
2019-05-25T01:28:15.119Z,45.51
2019-05-25T01:29:15.181Z,45.32
2019-05-25T01:30:15.202Z,45.29
2019-05-25T01:31:15.238Z,45.68
2019-05-25T01:32:15.280Z,45.49
2019-05-25T01:33:15.322Z,46.44
2019-05-25T01:34:15.368Z,46.54
2019-05-25T01:35:15.406Z,46.92
2019-05-25T01:36:15.454Z,46.63
2019-05-25T01:37:15.487Z,46.15
2019-05-25T01:38:15.528Z,46.06
2019-05-25T01:39:15.570Z,45.87
2019-05-25T01:40:15.610Z,45.97
2019-05-25T01:41:15.652Z,45.78
2019-05-25T01:42:15.695Z,45.49
2019-05-25T01:43:15.745Z,46.06
2019-05-25T01:44:15.778Z,45.97
2019-05-25T01:45:15.820Z,45.78
2019-05-25T01:46:15.858Z,45.78
2019-05-25T01:47:15.902Z,45.68
2019-05-25T01:48:15.943Z,46.34
2019-05-25T01:49:15.984Z,46.73
2019-05-25T01:50:16.026Z,47.02
2019-05-25T01:51:16.072Z,46.92
2019-05-25T01:52:16.114Z,46.73
2019-05-25T01:53:16.149Z,46.34
2019-05-25T01:54:16.190Z,46.73
2019-05-25T01:55:16.238Z,46.63
2019-05-25T01:56:16.323Z,46.34
2019-05-25T01:57:16.315Z,46.73
2019-05-25T01:58:16.355Z,46.63
2019-05-25T01:59:16.395Z,46.34
2019-05-25T02:00:16.439Z,46.54
2019-05-25T02:01:16.482Z,46.63
2019-05-25T02:02:16.523Z,47.02
2019-05-25T02:03:16.561Z,46.82
2019-05-25T02:04:16.602Z,46.73
2019-05-25T02:05:16.652Z,46.82
2019-05-25T02:06:16.888Z,46.92
2019-05-25T02:07:16.727Z,47.02
2019-05-25T02:08:16.769Z,46.73
2019-05-25T02:09:16.813Z,45.87
2019-05-25T02:10:16.852Z,45.39
2019-05-25T02:11:16.890Z,45.39
2019-05-25T02:12:16.934Z,45.65
2019-05-25T02:13:16.973Z,45.75
2019-05-25T02:14:17.013Z,45.18
2019-05-25T02:15:17.055Z,45.08
2019-05-25T02:16:17.095Z,44.99
2019-05-25T02:17:17.137Z,45.08
2019-05-25T02:18:17.177Z,45.01
2019-05-25T02:19:17.218Z,44.99
2019-05-25T02:20:17.260Z,44.92
2019-05-25T02:21:17.302Z,44.99
2019-05-25T02:22:17.340Z,45.08
2019-05-25T02:23:17.382Z,44.99
2019-05-25T02:24:17.423Z,45.18
2019-05-25T02:25:18.902Z,45.37
2019-05-25T02:26:17.513Z,45.56
2019-05-25T02:27:17.549Z,45.84
2019-05-25T02:28:17.586Z,45.84
2019-05-25T02:29:17.635Z,45.37
2019-05-25T02:30:17.692Z,45.18
2019-05-25T02:31:17.713Z,45.37
2019-05-25T02:32:17.850Z,45.37
2019-05-25T02:33:17.791Z,45.47
2019-05-25T02:34:17.879Z,45.08
2019-05-25T02:35:17.874Z,45.08
2019-05-25T02:36:20.633Z,45.08
2019-05-25T02:37:17.963Z,44.99
2019-05-25T02:38:17.996Z,44.80
2019-05-25T02:39:18.036Z,45.08
2019-05-25T02:40:18.083Z,45.65
2019-05-25T02:41:18.119Z,45.94
2019-05-25T02:42:18.159Z,45.75
2019-05-25T02:43:18.203Z,45.94
2019-05-25T02:44:18.239Z,46.04
2019-05-25T02:45:18.281Z,46.11
2019-05-25T02:46:18.382Z,46.20
2019-05-25T02:47:18.447Z,46.23
2019-05-25T02:48:18.402Z,46.39
2019-05-25T02:49:18.448Z,46.01
2019-05-25T02:50:18.482Z,46.20
2019-05-25T02:51:18.525Z,46.01
2019-05-25T02:52:18.569Z,45.92
2019-05-25T02:53:18.607Z,45.63
2019-05-25T02:54:18.646Z,46.01
2019-05-25T02:55:32.997Z,46.01
2019-05-25T02:56:18.730Z,45.83
2019-05-25T02:57:18.779Z,46.39
2019-05-25T02:58:18.860Z,46.49
2019-05-25T02:59:18.850Z,46.58
2019-05-25T03:00:18.892Z,46.30
2019-05-25T03:01:18.941Z,46.87
2019-05-25T03:02:18.980Z,46.78
2019-05-25T03:03:19.013Z,46.11
2019-05-25T03:04:19.056Z,45.73
2019-05-25T03:05:19.095Z,45.44
2019-05-25T03:06:19.137Z,44.96
2019-05-25T03:07:19.177Z,45.06
2019-05-25T03:08:19.220Z,44.49
2019-05-25T03:09:19.259Z,44.20
2019-05-25T03:10:19.299Z,43.82
2019-05-25T03:11:19.341Z,43.63
2019-05-25T03:12:19.381Z,43.73
2019-05-25T03:13:19.421Z,43.44
2019-05-25T03:14:19.461Z,43.06
2019-05-25T03:15:19.502Z,43.25
2019-05-25T03:16:19.541Z,43.54
2019-05-25T03:17:19.584Z,43.44
2019-05-25T03:18:19.624Z,43.06
2019-05-25T03:19:19.763Z,43.25
2019-05-25T03:20:19.710Z,43.25
2019-05-25T03:21:19.745Z,43.44
2019-05-25T03:22:19.786Z,43.54
2019-05-25T03:23:19.826Z,43.44
2019-05-25T03:24:19.867Z,43.63
2019-05-25T03:25:19.914Z,43.63
2019-05-25T03:26:19.967Z,43.63
2019-05-25T03:27:19.989Z,43.63
2019-05-25T03:28:20.030Z,43.73
2019-05-25T03:29:20.070Z,43.54
2019-05-25T03:30:20.110Z,43.63
2019-05-25T03:31:20.154Z,43.82
2019-05-25T03:32:20.193Z,43.82
2019-05-25T03:33:20.267Z,43.73
2019-05-25T03:34:20.272Z,43.75
2019-05-25T03:35:20.319Z,44.04
2019-05-25T03:36:20.356Z,44.04
2019-05-25T03:37:20.396Z,44.04
2019-05-25T03:38:20.435Z,44.13
2019-05-25T03:39:20.478Z,44.13
2019-05-25T03:40:20.519Z,44.80
2019-05-25T03:41:20.559Z,44.80
2019-05-25T03:42:20.596Z,44.60
2019-05-25T03:43:20.647Z,44.60
2019-05-25T03:44:20.680Z,44.80
2019-05-25T03:45:20.722Z,44.99
2019-05-25T03:46:20.761Z,44.99
2019-05-25T03:47:20.801Z,45.37
2019-05-25T03:48:20.847Z,45.20
2019-05-25T03:49:20.889Z,45.29
2019-05-25T03:50:20.922Z,45.68
2019-05-25T03:51:20.965Z,45.75
2019-05-25T03:52:21.025Z,46.15
2019-05-25T03:53:21.051Z,47.02
2019-05-25T03:54:21.086Z,46.54
2019-05-25T03:55:21.131Z,46.92
2019-05-25T03:56:21.170Z,47.02
2019-05-25T03:57:21.210Z,47.11
2019-05-25T03:58:21.252Z,47.11
2019-05-25T03:59:21.303Z,47.58
2019-05-25T04:00:21.336Z,47.49
2019-05-25T04:01:21.380Z,48.16
2019-05-25T04:02:21.416Z,48.54
2019-05-25T04:03:21.456Z,48.92
2019-05-25T04:04:21.499Z,48.73
2019-05-25T04:05:21.544Z,48.63
2019-05-25T04:06:21.579Z,49.11
2019-05-25T04:07:21.620Z,49.02
2019-05-25T04:08:21.663Z,49.11
2019-05-25T04:09:21.704Z,49.11
2019-05-25T04:10:21.744Z,49.68
2019-05-25T04:11:21.786Z,49.21
2019-05-25T04:12:21.826Z,49.40
2019-05-25T04:13:21.868Z,49.11
2019-05-25T04:14:21.929Z,49.02
2019-05-25T04:15:21.949Z,49.40
2019-05-25T04:16:21.992Z,49.78
2019-05-25T04:17:22.037Z,49.59
2019-05-25T04:18:22.071Z,49.59
2019-05-25T04:19:22.113Z,49.78
2019-05-25T04:20:22.259Z,49.78
2019-05-25T04:21:22.196Z,49.49
2019-05-25T04:22:22.235Z,49.59
2019-05-25T04:23:22.279Z,49.87
2019-05-25T04:24:22.320Z,49.87
2019-05-25T04:25:22.360Z,49.68
2019-05-25T04:26:23.074Z,49.68
2019-05-25T04:27:22.442Z,49.97
2019-05-25T04:28:22.484Z,49.30
2019-05-25T04:29:22.529Z,49.87
2019-05-25T04:30:22.566Z,49.78
2019-05-25T04:31:22.617Z,49.87
2019-05-25T04:32:22.649Z,49.21
2019-05-25T04:33:22.691Z,49.02
2019-05-25T04:34:22.733Z,49.87
2019-05-25T04:35:22.774Z,49.78
2019-05-25T04:36:22.816Z,49.49
2019-05-25T04:37:22.858Z,49.62
2019-05-25T04:38:22.905Z,49.52
2019-05-25T04:39:22.940Z,49.59
2019-05-25T04:40:23.373Z,49.68
2019-05-25T04:41:23.022Z,50.18
2019-05-25T04:42:23.105Z,50.47
2019-05-25T04:43:23.106Z,51.33
2019-05-25T04:44:23.147Z,51.81
2019-05-25T04:45:23.196Z,53.05
2019-05-25T04:46:23.277Z,52.57
2019-05-25T04:47:26.914Z,52.67
2019-05-25T04:48:23.311Z,52.38
2019-05-25T04:49:23.352Z,52.76
2019-05-25T04:50:23.393Z,53.72
2019-05-25T04:51:23.435Z,54.29
2019-05-25T04:52:23.477Z,54.38
2019-05-25T04:53:23.520Z,54.86
2019-05-25T04:54:23.560Z,54.77
2019-05-25T04:55:23.612Z,54.57
2019-05-25T04:56:38.243Z,54.38
2019-05-25T04:57:23.685Z,54.86
2019-05-25T04:58:23.735Z,54.48
2019-05-25T04:59:23.770Z,54.60
2019-05-25T05:00:23.911Z,54.60
2019-05-25T05:01:23.853Z,54.60
2019-05-25T05:02:23.892Z,54.70
2019-05-25T05:03:23.935Z,55.55
2019-05-25T05:04:23.980Z,56.41
2019-05-25T05:05:24.025Z,56.13
2019-05-25T05:06:24.069Z,56.51
2019-05-25T05:07:24.101Z,56.89
2019-05-25T05:08:24.188Z,56.60
2019-05-25T05:09:24.184Z,56.99
2019-05-25T05:10:24.226Z,57.75
2019-05-25T05:11:24.277Z,56.45
2019-05-25T05:12:24.311Z,56.89
2019-05-25T05:13:24.354Z,57.78
2019-05-25T05:14:24.504Z,58.64
2019-05-25T05:15:24.435Z,57.50
2019-05-25T05:16:24.487Z,59.59
2019-05-25T05:17:24.520Z,59.31
2019-05-25T05:18:24.563Z,59.88
2019-05-25T05:19:24.606Z,59.91
2019-05-25T05:20:24.647Z,60.01
2019-05-25T05:21:24.698Z,60.30
2019-05-25T05:22:24.730Z,61.92
2019-05-25T05:23:24.773Z,62.87
2019-05-25T05:24:24.877Z,64.50
2019-05-25T05:25:24.862Z,65.30
2019-05-25T05:26:24.898Z,65.30
2019-05-25T05:27:24.945Z,64.91
2019-05-25T05:28:24.984Z,67.21
2019-05-25T05:29:25.028Z,67.40
2019-05-25T05:30:25.080Z,70.56
2019-05-25T05:31:25.116Z,75.62
2019-05-25T05:32:27.798Z,75.47
2019-05-25T05:33:25.201Z,76.23
2019-05-25T05:34:25.294Z,76.62
2019-05-25T05:35:25.282Z,78.14
2019-05-25T05:36:25.327Z,76.62
2019-05-25T05:37:25.374Z,80.25
2019-05-25T05:38:25.420Z,80.87
2019-05-25T05:39:25.459Z,81.73
2019-05-25T05:40:25.499Z,81.54
2019-05-25T05:41:25.550Z,82.68
2019-05-25T05:42:25.586Z,83.64
2019-05-25T05:43:25.628Z,83.83
2019-05-25T05:44:25.672Z,83.59
2019-05-25T05:45:25.716Z,84.83
2019-05-25T05:46:25.764Z,86.08
2019-05-25T05:47:25.802Z,86.65
2019-05-25T05:48:25.846Z,87.13
2019-05-25T05:49:25.889Z,86.55
2019-05-25T05:50:25.931Z,86.55
2019-05-25T05:51:25.984Z,87.70
2019-05-25T05:52:26.019Z,88.47
2019-05-25T05:53:26.064Z,88.09
2019-05-25T05:54:26.112Z,88.66
2019-05-25T05:55:26.159Z,87.41
2019-05-25T05:56:26.207Z,89.04
2019-05-25T05:57:26.243Z,88.56
2019-05-25T05:58:26.282Z,88.47
2019-05-25T05:59:26.333Z,88.76
2019-05-25T06:00:26.369Z,88.47
2019-05-25T06:01:26.417Z,88.66
2019-05-25T06:02:26.465Z,89.04
2019-05-25T06:03:26.500Z,88.47
2019-05-25T06:04:26.544Z,87.90
2019-05-25T06:05:26.596Z,88.28
2019-05-25T06:06:26.634Z,88.09
2019-05-25T06:07:27.551Z,87.99
2019-05-25T06:08:26.723Z,88.56
2019-05-25T06:09:26.765Z,89.04
2019-05-25T06:10:26.803Z,89.43
2019-05-25T06:11:26.848Z,89.72
2019-05-25T06:12:26.892Z,89.14
2019-05-25T06:13:26.936Z,88.47
2019-05-25T06:14:26.979Z,88.47
2019-05-25T06:15:27.023Z,88.56
2019-05-25T06:16:27.067Z,89.14
2019-05-25T06:17:27.110Z,88.85
2019-05-25T06:18:27.161Z,89.04
2019-05-25T06:19:27.197Z,89.14
2019-05-25T06:20:27.241Z,88.85
2019-05-25T06:21:27.285Z,88.76
2019-05-25T06:22:27.329Z,88.66
2019-05-25T06:23:27.371Z,88.56
2019-05-25T06:24:27.426Z,89.14
2019-05-25T06:25:27.531Z,88.37
2019-05-25T06:26:27.503Z,88.43
2019-05-25T06:27:28.115Z,87.99
2019-05-25T06:28:27.592Z,87.47
2019-05-25T06:29:27.634Z,85.94
2019-05-25T06:30:27.676Z,87.18
2019-05-25T06:31:27.719Z,87.08
2019-05-25T06:32:27.784Z,87.08
2019-05-25T06:33:27.807Z,86.80
2019-05-25T06:34:27.860Z,86.22
2019-05-25T06:35:27.897Z,86.70
2019-05-25T06:36:27.954Z,88.52
2019-05-25T06:37:27.983Z,87.18
2019-05-25T06:38:28.023Z,88.04
2019-05-25T06:39:28.068Z,87.08
2019-05-25T06:40:28.111Z,88.04
2019-05-25T06:41:28.156Z,87.27
2019-05-25T06:42:28.198Z,87.51
2019-05-25T06:43:28.242Z,87.85
2019-05-25T06:44:28.293Z,88.66
2019-05-25T06:45:28.336Z,88.37
2019-05-25T06:46:28.371Z,87.80
2019-05-25T06:47:28.416Z,88.28
2019-05-25T06:48:28.460Z,88.47
2019-05-25T06:49:28.502Z,88.37
2019-05-25T06:50:28.552Z,89.04
2019-05-25T06:51:28.588Z,87.80
2019-05-25T06:52:28.679Z,88.76
2019-05-25T06:53:28.683Z,88.56
2019-05-25T06:54:28.719Z,88.85
2019-05-25T06:55:28.786Z,89.14
2019-05-25T06:56:28.811Z,89.18
2019-05-25T06:57:42.176Z,89.28
2019-05-25T06:58:28.894Z,88.80
2019-05-25T06:59:28.942Z,89.76
2019-05-25T07:00:28.980Z,90.23
2019-05-25T07:01:29.024Z,90.43
2019-05-25T07:02:29.067Z,90.72
2019-05-25T07:03:29.111Z,91.39
2019-05-25T07:04:29.158Z,90.33
2019-05-25T07:05:29.214Z,91.05
2019-05-25T07:06:29.258Z,90.58
2019-05-25T07:07:29.283Z,90.33
2019-05-25T07:08:29.329Z,90.58
2019-05-25T07:09:29.379Z,90.67
2019-05-25T07:10:29.516Z,90.09
2019-05-25T07:11:29.459Z,89.28
2019-05-25T07:12:29.502Z,89.57
2019-05-25T07:13:29.552Z,89.57
2019-05-25T07:14:29.589Z,89.47
2019-05-25T07:15:29.632Z,89.86
2019-05-25T07:16:29.677Z,89.76
2019-05-25T07:17:29.733Z,89.66
2019-05-25T07:18:29.770Z,90.05
2019-05-25T07:19:29.807Z,91.19
2019-05-25T07:20:29.854Z,91.58
2019-05-25T07:21:29.897Z,91.29
2019-05-25T07:22:29.938Z,92.15
2019-05-25T07:23:29.984Z,91.10
2019-05-25T07:24:30.028Z,91.19
2019-05-25T07:25:30.083Z,90.86
2019-05-25T07:26:30.120Z,91.53
2019-05-25T07:27:30.158Z,91.43
2019-05-25T07:28:30.210Z,92.20
2019-05-25T07:29:30.245Z,91.34
2019-05-25T07:30:30.289Z,92.01
2019-05-25T07:31:30.334Z,92.20
2019-05-25T07:32:30.391Z,91.82
2019-05-25T07:33:30.430Z,91.82
2019-05-25T07:34:30.467Z,92.39
2019-05-25T07:35:30.515Z,92.34
2019-05-25T07:36:30.552Z,93.68
2019-05-25T07:37:30.600Z,93.21
2019-05-25T07:38:30.640Z,93.21
2019-05-25T07:39:30.705Z,92.77
2019-05-25T07:40:30.735Z,93.26
2019-05-25T07:41:30.772Z,93.06
2019-05-25T07:42:30.816Z,92.68
2019-05-25T07:43:30.925Z,93.73
2019-05-25T07:44:30.915Z,92.30
2019-05-25T07:45:30.950Z,93.06
2019-05-25T07:46:30.994Z,92.91
2019-05-25T07:47:31.041Z,93.40
2019-05-25T07:48:31.241Z,94.12
2019-05-25T07:49:31.126Z,93.06
2019-05-25T07:50:31.173Z,92.91
2019-05-25T07:51:31.215Z,93.49
2019-05-25T07:52:31.258Z,93.21
2019-05-25T07:53:31.302Z,93.01
2019-05-25T07:54:31.344Z,93.30
2019-05-25T07:55:31.630Z,93.82
2019-05-25T07:56:31.437Z,94.64
2019-05-25T07:57:31.488Z,94.02
2019-05-25T07:58:31.523Z,94.59
2019-05-25T07:59:31.565Z,94.45
2019-05-25T08:00:31.611Z,94.54
2019-05-25T08:01:31.666Z,93.78
2019-05-25T08:02:31.699Z,93.68
2019-05-25T08:03:31.759Z,94.17
2019-05-25T08:04:31.790Z,93.88
2019-05-25T08:05:31.833Z,93.78
2019-05-25T08:06:31.876Z,94.07
2019-05-25T08:07:31.926Z,93.88
2019-05-25T08:08:31.971Z,94.17
2019-05-25T08:09:32.010Z,94.93
2019-05-25T08:10:32.063Z,94.45
2019-05-25T08:11:32.100Z,94.64
2019-05-25T08:12:32.150Z,94.07
2019-05-25T08:13:32.191Z,93.88
2019-05-25T08:14:32.227Z,94.35
2019-05-25T08:15:32.278Z,94.35
2019-05-25T08:16:32.338Z,94.31
2019-05-25T08:17:32.365Z,94.49
2019-05-25T08:18:32.407Z,94.49
2019-05-25T08:19:32.452Z,94.74
2019-05-25T08:20:32.499Z,95.41
2019-05-25T08:21:32.550Z,95.41
2019-05-25T08:22:32.625Z,94.93
2019-05-25T08:23:32.630Z,94.31
2019-05-25T08:24:32.677Z,93.63
2019-05-25T08:25:32.739Z,95.07
2019-05-25T08:26:32.764Z,94.59
2019-05-25T08:27:32.812Z,95.17
2019-05-25T08:28:33.417Z,94.88
2019-05-25T08:29:32.913Z,94.69
2019-05-25T08:30:32.948Z,93.63
2019-05-25T08:31:32.991Z,94.59
2019-05-25T08:32:33.033Z,95.55
2019-05-25T08:33:33.087Z,94.49
2019-05-25T08:34:33.123Z,94.59
2019-05-25T08:35:33.166Z,94.40
2019-05-25T08:36:33.218Z,94.40
2019-05-25T08:37:33.255Z,94.98
2019-05-25T08:38:33.302Z,94.31
2019-05-25T08:39:33.344Z,94.31
2019-05-25T08:40:33.393Z,94.54
2019-05-25T08:41:33.436Z,94.98
2019-05-25T08:42:33.481Z,93.82
2019-05-25T08:43:33.524Z,94.40
2019-05-25T08:44:33.635Z,94.40
2019-05-25T08:45:33.714Z,94.49
2019-05-25T08:46:33.664Z,94.49
2019-05-25T08:47:33.713Z,94.49
2019-05-25T08:48:33.751Z,94.40
2019-05-25T08:49:33.798Z,94.02
2019-05-25T08:50:38.274Z,94.88
2019-05-25T08:51:33.895Z,94.59
2019-05-25T08:52:33.926Z,94.31
2019-05-25T08:53:41.534Z,95.07
2019-05-25T08:54:34.020Z,94.31
2019-05-25T08:55:34.061Z,94.69
2019-05-25T08:56:34.106Z,93.97
2019-05-25T08:57:34.163Z,94.35
2019-05-25T08:58:47.599Z,94.35
2019-05-25T08:59:34.240Z,94.69
2019-05-25T09:00:34.305Z,94.69
2019-05-25T09:01:34.332Z,95.70
2019-05-25T09:02:34.378Z,94.31
2019-05-25T09:03:34.426Z,94.64
2019-05-25T09:04:34.463Z,94.98
2019-05-25T09:05:34.513Z,94.40
2019-05-25T09:06:34.560Z,94.45
2019-05-25T09:07:34.597Z,94.88
2019-05-25T09:08:34.647Z,94.35
2019-05-25T09:09:34.686Z,94.35
2019-05-25T09:10:34.730Z,94.93
2019-05-25T09:11:34.777Z,94.64
2019-05-25T09:12:34.837Z,94.31
2019-05-25T09:13:34.891Z,94.35
2019-05-25T09:14:34.908Z,94.49
2019-05-25T09:15:35.017Z,95.65
2019-05-25T09:16:35.005Z,94.79
2019-05-25T09:17:35.054Z,94.21
2019-05-25T09:18:35.087Z,94.49
2019-05-25T09:19:35.131Z,94.88
2019-05-25T09:20:35.175Z,94.31
2019-05-25T09:21:35.222Z,93.44
2019-05-25T09:22:35.264Z,93.44
2019-05-25T09:23:35.309Z,94.69
2019-05-25T09:24:35.353Z,94.79
2019-05-25T09:25:35.398Z,94.02
2019-05-25T09:26:35.476Z,94.98
2019-05-25T09:27:35.498Z,94.98
2019-05-25T09:28:35.542Z,94.64
2019-05-25T09:29:35.577Z,94.40
2019-05-25T09:30:35.622Z,94.79
2019-05-25T09:31:35.665Z,93.73
2019-05-25T09:32:35.715Z,95.07
2019-05-25T09:33:35.753Z,94.31
2019-05-25T09:34:35.797Z,94.40
2019-05-25T09:35:35.843Z,95.51
2019-05-25T09:36:35.887Z,93.97
2019-05-25T09:37:35.935Z,94.26
2019-05-25T09:38:35.984Z,94.64
2019-05-25T09:39:36.021Z,94.79
2019-05-25T09:40:36.066Z,94.84
2019-05-25T09:41:36.112Z,94.54
2019-05-25T09:42:36.175Z,93.92
2019-05-25T09:43:36.199Z,94.35
2019-05-25T09:44:36.244Z,94.45
2019-05-25T09:45:36.297Z,95.17
2019-05-25T09:46:36.342Z,95.07
2019-05-25T09:47:36.375Z,94.12
2019-05-25T09:48:38.279Z,94.02
2019-05-25T09:49:36.464Z,94.35
2019-05-25T09:50:36.517Z,93.63
2019-05-25T09:51:36.550Z,93.88
2019-05-25T09:52:36.597Z,93.68
2019-05-25T09:53:36.640Z,93.88
2019-05-25T09:54:36.688Z,93.59
2019-05-25T09:55:36.728Z,94.07
2019-05-25T09:56:36.782Z,93.68
2019-05-25T09:57:36.822Z,94.21
2019-05-25T09:58:36.861Z,93.68
2019-05-25T09:59:36.908Z,93.92
2019-05-25T10:00:40.367Z,93.82
2019-05-25T10:01:36.994Z,92.68
2019-05-25T10:02:37.041Z,92.19
2019-05-25T10:03:37.085Z,91.52
2019-05-25T10:04:37.137Z,91.52
2019-05-25T10:05:37.257Z,91.33
2019-05-25T10:06:37.221Z,91.14
2019-05-25T10:07:37.262Z,91.14
2019-05-25T10:08:37.305Z,87.16
2019-05-25T10:09:40.010Z,86.49
2019-05-25T10:10:37.393Z,86.34
2019-05-25T10:11:37.439Z,86.15
2019-05-25T10:12:37.487Z,86.54
2019-05-25T10:13:37.530Z,87.98
2019-05-25T10:14:37.574Z,87.49
2019-05-25T10:15:37.616Z,88.07
2019-05-25T10:16:37.670Z,88.84
2019-05-25T10:17:37.704Z,88.26
2019-05-25T10:18:37.764Z,88.45
2019-05-25T10:19:37.798Z,88.93
2019-05-25T10:20:37.843Z,89.61
2019-05-25T10:21:37.884Z,89.41
2019-05-25T10:22:37.929Z,89.89
2019-05-25T10:23:37.969Z,89.70
2019-05-25T10:24:38.014Z,89.12
2019-05-25T10:25:38.057Z,90.47
2019-05-25T10:26:38.102Z,90.75
2019-05-25T10:27:38.147Z,90.18
2019-05-25T10:28:38.190Z,90.95
2019-05-25T10:29:38.234Z,91.81
2019-05-25T10:30:38.278Z,92.14
2019-05-25T10:31:38.324Z,91.76
2019-05-25T10:32:38.380Z,91.19
2019-05-25T10:33:38.424Z,90.90
2019-05-25T10:34:38.455Z,91.09
2019-05-25T10:35:38.503Z,91.28
2019-05-25T10:36:38.550Z,91.76
2019-05-25T10:37:38.601Z,91.66
2019-05-25T10:38:38.723Z,91.81
2019-05-25T10:39:38.689Z,91.33
2019-05-25T10:40:38.729Z,91.42
2019-05-25T10:41:38.809Z,91.52
2019-05-25T10:42:38.814Z,91.71
2019-05-25T10:43:38.858Z,91.61
2019-05-25T10:44:38.907Z,92.19
2019-05-25T10:45:38.954Z,91.61
2019-05-25T10:46:38.993Z,91.42
2019-05-25T10:47:39.036Z,91.52
2019-05-25T10:48:39.103Z,91.04
2019-05-25T10:49:39.131Z,91.33
2019-05-25T10:50:39.170Z,90.84
2019-05-25T10:51:39.221Z,91.13
2019-05-25T10:52:39.268Z,91.04
2019-05-25T10:53:39.309Z,91.04
2019-05-25T10:54:39.352Z,91.81
2019-05-25T10:55:39.397Z,91.52
2019-05-25T10:56:39.441Z,90.99
2019-05-25T10:57:39.484Z,90.22
2019-05-25T10:58:39.541Z,90.75
2019-05-25T10:59:51.931Z,90.66
2019-05-25T11:00:39.621Z,90.41
2019-05-25T11:01:39.668Z,90.22
2019-05-25T11:02:39.711Z,89.50
2019-05-25T11:03:39.761Z,89.60
2019-05-25T11:04:39.798Z,88.83
2019-05-25T11:05:39.847Z,89.31
2019-05-25T11:06:39.891Z,90.08
2019-05-25T11:07:39.940Z,90.37
2019-05-25T11:08:39.978Z,90.75
2019-05-25T11:09:40.025Z,90.75
2019-05-25T11:10:40.078Z,90.66
2019-05-25T11:11:40.117Z,90.08
2019-05-25T11:12:40.167Z,89.79
2019-05-25T11:13:40.200Z,89.98
2019-05-25T11:14:40.248Z,90.27
2019-05-25T11:15:40.299Z,89.79
2019-05-25T11:16:40.353Z,89.12
2019-05-25T11:17:40.384Z,90.51
2019-05-25T11:18:40.478Z,90.51
2019-05-25T11:19:40.470Z,90.37
2019-05-25T11:20:40.516Z,90.37
2019-05-25T11:21:40.571Z,89.60
2019-05-25T11:22:40.679Z,88.93
2019-05-25T11:23:40.651Z,89.79
2019-05-25T11:24:40.707Z,90.37
2019-05-25T11:25:40.741Z,91.04
2019-05-25T11:26:40.786Z,91.33
2019-05-25T11:27:40.834Z,90.94
2019-05-25T11:28:40.936Z,90.66
2019-05-25T11:29:40.928Z,90.27
2019-05-25T11:30:40.970Z,90.75
2019-05-25T11:31:41.014Z,90.27
2019-05-25T11:32:41.054Z,89.98
2019-05-25T11:33:41.105Z,89.98
2019-05-25T11:34:41.156Z,90.27
2019-05-25T11:35:41.189Z,91.13
2019-05-25T11:36:41.236Z,90.75
2019-05-25T11:37:41.279Z,90.17
2019-05-25T11:38:41.331Z,90.27
2019-05-25T11:39:41.376Z,89.98
2019-05-25T11:40:41.416Z,90.84
2019-05-25T11:41:41.459Z,90.46
2019-05-25T11:42:41.539Z,89.50
2019-05-25T11:43:41.557Z,90.08
2019-05-25T11:44:41.643Z,91.23
2019-05-25T11:45:45.163Z,90.08
2019-05-25T11:46:41.686Z,91.04
2019-05-25T11:47:41.734Z,91.13
2019-05-25T11:48:41.771Z,91.13
2019-05-25T11:49:41.817Z,91.90
2019-05-25T11:50:41.861Z,91.71
2019-05-25T11:51:41.910Z,92.38
2019-05-25T11:52:42.004Z,92.10
2019-05-25T11:53:41.994Z,91.23
2019-05-25T11:54:42.053Z,91.04
2019-05-25T11:55:42.091Z,91.90
2019-05-25T11:56:42.132Z,90.94
2019-05-25T11:57:42.175Z,90.84
2019-05-25T11:58:47.342Z,90.66
2019-05-25T11:59:42.262Z,91.04
2019-05-25T12:00:42.309Z,91.33
2019-05-25T12:01:42.353Z,91.42
2019-05-25T12:02:42.398Z,91.13
2019-05-25T12:03:42.445Z,90.46
2019-05-25T12:04:42.502Z,91.90
2019-05-25T12:05:42.533Z,90.94
2019-05-25T12:06:42.579Z,92.00
2019-05-25T12:07:44.731Z,91.81
2019-05-25T12:08:42.669Z,91.71
2019-05-25T12:09:42.712Z,91.04
2019-05-25T12:10:42.755Z,91.23
2019-05-25T12:11:42.818Z,91.52
2019-05-25T12:12:42.857Z,91.52
2019-05-25T12:13:42.891Z,91.52
2019-05-25T12:14:42.935Z,91.42
2019-05-25T12:15:42.982Z,91.33
2019-05-25T12:16:43.034Z,91.56
2019-05-25T12:17:43.070Z,91.66
2019-05-25T12:18:43.116Z,91.13
2019-05-25T12:19:43.160Z,91.56
2019-05-25T12:20:43.206Z,91.42
2019-05-25T12:21:43.264Z,91.13
2019-05-25T12:22:43.309Z,92.00
2019-05-25T12:23:43.344Z,91.33
2019-05-25T12:24:43.384Z,91.23
2019-05-25T12:25:43.428Z,91.42
2019-05-25T12:26:43.474Z,91.71
2019-05-25T12:27:43.523Z,91.71
2019-05-25T12:28:43.567Z,91.52
2019-05-25T12:29:43.611Z,91.61
2019-05-25T12:30:43.652Z,91.47
2019-05-25T12:31:43.695Z,91.75
2019-05-25T12:32:43.743Z,91.85
2019-05-25T12:33:43.813Z,91.56
2019-05-25T12:34:43.831Z,91.75
2019-05-25T12:35:45.218Z,91.37
2019-05-25T12:36:43.925Z,91.47
2019-05-25T12:37:43.966Z,91.52
2019-05-25T12:38:44.020Z,91.75
2019-05-25T12:39:44.055Z,91.23
2019-05-25T12:40:53.151Z,92.05
2019-05-25T12:41:44.149Z,91.37
2019-05-25T12:42:45.984Z,91.75
2019-05-25T12:43:44.244Z,91.47
2019-05-25T12:44:44.279Z,92.05
2019-05-25T12:45:44.333Z,91.47
2019-05-25T12:46:44.375Z,90.89
2019-05-25T12:47:44.423Z,90.89
2019-05-25T12:48:44.460Z,90.99
2019-05-25T12:49:50.733Z,91.18
2019-05-25T12:50:44.551Z,91.28
2019-05-25T12:51:44.595Z,91.08
2019-05-25T12:52:44.640Z,91.37